Time;durP1;ratioP1;P1;durP2;ratioP2;P2;SDS_P1;SDS_P2;PMS_P1;PMS_P2;Temp;Humidity;BMP_temperature;BMP_pressure;BME280_temperature;BME280_humidity;BME280_pressure;Samples;Min_cycle;Max_cycle;Signal;HPM_P1;HPM_P2
2022/06/16 00:00:32;;;;;;;5.70;4.00;;;;;;;;;;5092531;28;20028;-71
2022/06/16 00:02:58;;;;;;;11.77;6.47;;;;;;;;;;5057518;28;20036;-71
2022/06/16 00:05:25;;;;;;;2.85;2.45;;;;;;;;;;5057550;28;20032;-68
2022/06/16 00:07:51;;;;;;;5.18;3.28;;;;;;;;;;5057700;28;20032;-70
2022/06/16 00:10:18;;;;;;;14.00;5.70;;;;;;;;;;5057698;28;20055;-71
2022/06/16 00:12:44;;;;;;;7.55;3.55;;;;;;;;;;5074281;28;20039;-71
2022/06/16 00:15:12;;;;;;;4.80;3.28;;;;;;;;;;5092349;28;20467;-68
2022/06/16 00:17:37;;;;;;;12.55;5.90;;;;;;;;;;5057333;28;20028;-71
2022/06/16 00:20:04;;;;;;;2.15;1.98;;;;;;;;;;5092247;28;20115;-70
2022/06/16 00:22:30;;;;;;;3.65;3.03;;;;;;;;;;5057574;28;20505;-71
2022/06/16 00:24:56;;;;;;;15.82;14.73;;;;;;;;;;5092345;28;20052;-70
2022/06/16 00:27:22;;;;;;;0.40;0.40;;;;;;;;;;5092261;28;20059;-70
2022/06/16 00:29:47;;;;;;;0.20;0.20;;;;;;;;;;5073897;28;20044;-70
2022/06/16 00:32:13;;;;;;;0.52;0.52;;;;;;;;;;5092127;28;20046;-70
2022/06/16 00:34:38;;;;;;;3.30;3.13;;;;;;;;;;5074254;28;20071;-70
2022/06/16 00:37:04;;;;;;;5.65;5.32;;;;;;;;;;5074000;28;20042;-70
2022/06/16 00:39:30;;;;;;;2.05;1.02;;;;;;;;;;5074004;28;20040;-70
2022/06/16 00:41:56;;;;;;;0.60;0.60;;;;;;;;;;5092145;28;20024;-70
2022/06/16 00:44:30;;;;;;;0.28;0.28;;;;;;;;;;5092213;28;20103;-70
2022/06/16 00:46:56;;;;;;;0.20;0.20;;;;;;;;;;5073580;28;20040;-72
2022/06/16 00:49:23;;;;;;;0.20;0.20;;;;;;;;;;5094324;28;20509;-70
2022/06/16 00:51:54;;;;;;;0.20;0.20;;;;;;;;;;5058866;28;20031;-72
2022/06/16 00:54:20;;;;;;;0.20;0.20;;;;;;;;;;5076985;28;20060;-70
2022/06/16 00:56:46;;;;;;;0.20;0.20;;;;;;;;;;5095154;28;20088;-70
2022/06/16 00:59:12;;;;;;;1.05;1.05;;;;;;;;;;5060357;28;20090;-71
2022/06/16 01:01:39;;;;;;;0.68;0.68;;;;;;;;;;5060057;28;20036;-70
2022/06/16 01:06:51;;;;;;;0.52;0.52;;;;;;;;;;5095397;28;20038;-71
2022/06/16 01:09:18;;;;;;;0.20;0.20;;;;;;;;;;5077091;28;20035;-70
2022/06/16 01:14:50;;;;;;;1.10;1.10;;;;;;;;;;5095335;28;20036;-70
2022/06/16 01:17:28;;;;;;;1.52;1.27;;;;;;;;;;5095051;28;20048;-70
2022/06/16 01:20:02;;;;;;;4.40;4.10;;;;;;;;;;5095067;28;20036;-71
2022/06/16 01:22:30;;;;;;;4.35;3.95;;;;;;;;;;5076773;28;20427;-70
2022/06/16 01:25:26;;;;;;;5.53;1.98;;;;;;;;;;5077223;28;20038;-70
2022/06/16 01:27:54;;;;;;;4.38;2.45;;;;;;;;;;5067796;28;20144;-70
2022/06/16 01:30:23;;;;;;;17.33;16.27;;;;;;;;;;5059908;28;20589;-71
2022/06/16 01:32:49;;;;;;;;;;;;;;;;;;5076941;28;20020;-70
2022/06/16 01:35:28;;;;;;;1.30;1.30;;;;;;;;;;5060111;28;19923;-71
2022/06/16 01:38:14;;;;;;;1.00;1.00;;;;;;;;;;5060135;28;20066;-70
2022/06/16 01:40:46;;;;;;;0.10;0.10;;;;;;;;;;5060797;28;20032;-71
2022/06/16 01:43:20;;;;;;;6.38;6.05;;;;;;;;;;5102587;28;20032;-71
2022/06/16 01:45:55;;;;;;;2.28;2.17;;;;;;;;;;5086226;28;20035;-70
2022/06/16 01:48:22;;;;;;;0.28;0.28;;;;;;;;;;5076887;28;20475;-71
2022/06/16 01:50:51;;;;;;;0.28;0.28;;;;;;;;;;5093522;28;20036;-71
2022/06/16 01:53:20;;;;;;;0.28;0.28;;;;;;;;;;5059881;28;20044;-71
2022/06/16 01:55:46;;;;;;;;;;;;;;;;;;5059870;28;20027;-71
2022/06/16 01:58:38;;;;;;;0.10;0.10;;;;;;;;;;5094638;28;20053;-71
2022/06/16 02:01:07;;;;;;;0.65;0.65;;;;;;;;;;5072493;28;20127;-71
2022/06/16 02:03:45;;;;;;;0.20;0.20;;;;;;;;;;5076172;28;20046;-70
2022/06/16 02:06:16;;;;;;;0.20;0.20;;;;;;;;;;5076174;28;20441;-71
2022/06/16 02:08:45;;;;;;;0.20;0.20;;;;;;;;;;5076016;28;20051;-70
2022/06/16 02:11:20;;;;;;;1.35;1.25;;;;;;;;;;5076267;28;20392;-71
2022/06/16 02:14:09;;;;;;;1.27;1.17;;;;;;;;;;5059172;28;20036;-71
2022/06/16 02:16:38;;;;;;;0.73;0.73;;;;;;;;;;5066374;28;20044;-71
2022/06/16 02:19:10;;;;;;;0.20;0.20;;;;;;;;;;5076187;28;20536;-69
2022/06/16 02:21:46;;;;;;;0.30;0.30;;;;;;;;;;5094124;28;20276;-70
2022/06/16 02:24:13;;;;;;;0.20;0.20;;;;;;;;;;5059275;28;20038;-70
2022/06/16 02:26:39;;;;;;;0.22;0.22;;;;;;;;;;5075873;28;20048;-70
2022/06/16 02:29:20;;;;;;;0.20;0.20;;;;;;;;;;5076025;28;20510;-70
2022/06/16 02:31:52;;;;;;;0.28;0.28;;;;;;;;;;5073995;28;20039;-70
2022/06/16 02:34:21;;;;;;;0.20;0.20;;;;;;;;;;5059099;28;20024;-70
2022/06/16 02:37:05;;;;;;;0.10;0.10;;;;;;;;;;5093146;28;20044;-72
2022/06/16 02:39:42;;;;;;;0.28;0.28;;;;;;;;;;5093577;28;20552;-69
2022/06/16 02:42:27;;;;;;;0.20;0.20;;;;;;;;;;5093828;28;20455;-71
2022/06/16 02:45:06;;;;;;;0.28;0.28;;;;;;;;;;5074944;28;20480;-69
2022/06/16 02:47:57;;;;;;;0.20;0.20;;;;;;;;;;5075382;28;20036;-69
2022/06/16 02:50:56;;;;;;;0.20;0.20;;;;;;;;;;5075775;28;20031;-69
2022/06/16 02:53:30;;;;;;;1.02;0.93;;;;;;;;;;5048967;28;20101;-70
2022/06/16 02:55:58;;;;;;;0.20;0.20;;;;;;;;;;5075537;28;20040;-70
2022/06/16 02:58:25;;;;;;;0.20;0.20;;;;;;;;;;5093364;28;20040;-70
2022/06/16 03:00:53;;;;;;;1.63;1.55;;;;;;;;;;5075249;28;20040;-70
2022/06/16 03:03:20;;;;;;;0.28;0.28;;;;;;;;;;5088574;28;20039;-73
2022/06/16 03:05:52;;;;;;;0.28;0.28;;;;;;;;;;5071540;28;20028;-70
2022/06/16 03:08:20;;;;;;;0.22;0.22;;;;;;;;;;5070791;28;20039;-70
2022/06/16 03:10:53;;;;;;;0.30;0.30;;;;;;;;;;5052905;28;20491;-70
2022/06/16 03:13:26;;;;;;;0.20;0.20;;;;;;;;;;5070776;28;20039;-70
2022/06/16 03:15:53;;;;;;;0.20;0.20;;;;;;;;;;5053729;28;20059;-70
2022/06/16 03:18:20;;;;;;;3.85;3.60;;;;;;;;;;5070185;28;20070;-70
2022/06/16 03:20:47;;;;;;;0.20;0.20;;;;;;;;;;5054097;28;20305;-74
2022/06/16 03:23:13;;;;;;;0.20;0.20;;;;;;;;;;5070611;28;20487;-71
2022/06/16 03:25:41;;;;;;;0.30;0.30;;;;;;;;;;5070413;28;20028;-70
2022/06/16 03:28:08;;;;;;;0.20;0.20;;;;;;;;;;5071130;28;20512;-70
2022/06/16 03:30:38;;;;;;;1.42;0.93;;;;;;;;;;5054107;28;20068;-74
2022/06/16 03:33:05;;;;;;;0.20;0.20;;;;;;;;;;5071152;28;20040;-70
2022/06/16 03:35:30;;;;;;;0.20;0.20;;;;;;;;;;5070544;28;20035;-69
2022/06/16 03:40:47;;;;;;;0.20;0.20;;;;;;;;;;5077832;28;20036;-70
2022/06/16 03:43:13;;;;;;;0.20;0.20;;;;;;;;;;5053943;28;20071;-70
2022/06/16 03:45:38;;;;;;;0.63;0.63;;;;;;;;;;5088797;28;20046;-70
2022/06/16 03:48:04;;;;;;;0.20;0.20;;;;;;;;;;5070001;28;20074;-71
2022/06/16 03:50:33;;;;;;;0.20;0.20;;;;;;;;;;5070024;28;20036;-70
2022/06/16 03:53:02;;;;;;;0.82;0.82;;;;;;;;;;5070405;28;20169;-70
2022/06/16 03:55:28;;;;;;;0.20;0.20;;;;;;;;;;5070288;28;20484;-70
2022/06/16 03:57:54;;;;;;;0.20;0.20;;;;;;;;;;5070217;28;20043;-69
2022/06/16 04:00:21;;;;;;;0.30;0.30;;;;;;;;;;5088247;28;20032;-70
2022/06/16 04:02:48;;;;;;;0.68;0.68;;;;;;;;;;5070588;28;20059;-72
2022/06/16 04:05:28;;;;;;;0.25;0.25;;;;;;;;;;5055694;28;20093;-73
2022/06/16 04:08:06;;;;;;;0.20;0.20;;;;;;;;;;5055023;28;20039;-76
2022/06/16 04:10:32;;;;;;;0.20;0.20;;;;;;;;;;5053796;28;20185;-75
2022/06/16 04:13:02;;;;;;;0.25;0.25;;;;;;;;;;5070172;28;20067;-72
2022/06/16 04:15:31;;;;;;;0.20;0.20;;;;;;;;;;5053249;28;20395;-72
2022/06/16 04:17:59;;;;;;;0.53;0.43;;;;;;;;;;5053808;28;20055;-72
2022/06/16 04:20:31;;;;;;;1.83;1.23;;;;;;;;;;5054574;28;20313;-72
2022/06/16 04:23:03;;;;;;;1.00;1.00;;;;;;;;;;5070976;28;20415;-70
2022/06/16 04:25:31;;;;;;;0.50;0.50;;;;;;;;;;5092297;28;20032;-69
2022/06/16 04:28:01;;;;;;;0.20;0.20;;;;;;;;;;5074693;28;20549;-70
2022/06/16 04:30:31;;;;;;;0.28;0.28;;;;;;;;;;5057221;28;20044;-70
2022/06/16 04:32:58;;;;;;;0.28;0.28;;;;;;;;;;5056954;28;20020;-71
2022/06/16 04:35:25;;;;;;;0.20;0.20;;;;;;;;;;5056414;28;20396;-70
2022/06/16 04:37:58;;;;;;;0.20;0.20;;;;;;;;;;5049190;28;20032;-71
2022/06/16 04:40:24;;;;;;;1.15;1.15;;;;;;;;;;5070315;28;20390;-75
2022/06/16 04:42:54;;;;;;;4.70;4.47;;;;;;;;;;5073716;28;20035;-71
2022/06/16 04:45:22;;;;;;;0.20;0.20;;;;;;;;;;5072815;28;20442;-70
2022/06/16 04:47:49;;;;;;;0.30;0.30;;;;;;;;;;5055845;28;20028;-70
2022/06/16 04:50:19;;;;;;;16.45;10.93;;;;;;;;;;5073104;28;20379;-71
2022/06/16 04:52:49;;;;;;;1.23;1.15;;;;;;;;;;5056483;28;20089;-71
2022/06/16 04:55:18;;;;;;;2.28;2.15;;;;;;;;;;5071825;28;20043;-72
2022/06/16 04:58:13;;;;;;;1.23;1.23;;;;;;;;;;5070209;28;20066;-71
2022/06/16 05:00:53;;;;;;;0.20;0.20;;;;;;;;;;5058365;28;20032;-70
2022/06/16 05:03:52;;;;;;;0.20;0.20;;;;;;;;;;5056647;28;20040;-69
2022/06/16 05:06:25;;;;;;;0.20;0.20;;;;;;;;;;5071981;28;20032;-73
2022/06/16 05:09:24;;;;;;;0.20;0.20;;;;;;;;;;5031352;28;20044;-70
2022/06/16 05:12:29;;;;;;;0.20;0.20;;;;;;;;;;5027308;28;20287;-70
2022/06/16 05:15:24;;;;;;;3.78;3.58;;;;;;;;;;5010382;28;20071;-70
2022/06/16 05:18:29;;;;;;;0.22;0.22;;;;;;;;;;5021808;28;20041;-72
2022/06/16 05:21:14;;;;;;;0.90;0.90;;;;;;;;;;5009634;28;20037;-72
2022/06/16 05:23:58;;;;;;;0.30;0.30;;;;;;;;;;5055381;28;20473;-71
2022/06/16 05:26:51;;;;;;;0.20;0.20;;;;;;;;;;5070976;28;20036;-69
2022/06/16 05:29:29;;;;;;;0.30;0.30;;;;;;;;;;5070532;28;20032;-68
2022/06/16 05:32:15;;;;;;;0.30;0.30;;;;;;;;;;5072846;28;20036;-70
2022/06/16 05:34:59;;;;;;;1.15;1.10;;;;;;;;;;5072272;28;20047;-70
2022/06/16 05:37:43;;;;;;;0.20;0.20;;;;;;;;;;5086968;28;20580;-70
2022/06/16 05:40:54;;;;;;;0.20;0.20;;;;;;;;;;5023995;28;20128;-73
2022/06/16 05:43:20;;;;;;;0.20;0.20;;;;;;;;;;5025359;28;20044;-71
2022/06/16 05:46:06;;;;;;;0.20;0.20;;;;;;;;;;5041078;28;20038;-69
2022/06/16 05:48:42;;;;;;;0.20;0.20;;;;;;;;;;5072606;28;20042;-69
2022/06/16 05:51:11;;;;;;;0.30;0.30;;;;;;;;;;5056917;28;20081;-69
2022/06/16 05:53:55;;;;;;;0.40;0.40;;;;;;;;;;5091258;28;20097;-69
2022/06/16 05:56:26;;;;;;;0.20;0.20;;;;;;;;;;5072413;28;20796;-70
2022/06/16 05:58:53;;;;;;;0.20;0.20;;;;;;;;;;5072609;28;20032;-72
2022/06/16 06:01:21;;;;;;;0.20;0.20;;;;;;;;;;5072670;28;20046;-71
2022/06/16 06:03:53;;;;;;;0.20;0.20;;;;;;;;;;5072246;28;20032;-71
2022/06/16 06:06:18;;;;;;;0.20;0.20;;;;;;;;;;5071963;28;20059;-71
2022/06/16 06:17:04;;;;;;;1.02;0.93;;;;;;;;;;5090430;28;20032;-72
2022/06/16 06:19:31;;;;;;;1.42;1.23;;;;;;;;;;5052096;28;20866;-68
2022/06/16 06:22:13;;;;;;;1.55;1.20;;;;;;;;;;5067984;28;20036;-69
2022/06/16 06:24:39;;;;;;;3.25;2.22;;;;;;;;;;5068384;28;20071;-69
2022/06/16 06:27:18;;;;;;;0.30;0.30;;;;;;;;;;5051708;28;20041;-70
2022/06/16 06:29:44;;;;;;;0.55;0.47;;;;;;;;;;5051120;28;20044;-68
2022/06/16 06:32:10;;;;;;;0.22;0.22;;;;;;;;;;5051458;28;20086;-71
2022/06/16 06:34:36;;;;;;;0.52;0.52;;;;;;;;;;5051603;28;20028;-71
2022/06/16 06:37:02;;;;;;;1.10;0.85;;;;;;;;;;5069126;28;20037;-77
2022/06/16 06:39:28;;;;;;;0.30;0.30;;;;;;;;;;5051486;28;20082;-69
2022/06/16 06:41:54;;;;;;;0.20;0.20;;;;;;;;;;5069379;28;20025;-71
2022/06/16 06:44:19;;;;;;;0.95;0.95;;;;;;;;;;5069119;28;20124;-71
2022/06/16 06:46:45;;;;;;;0.30;0.30;;;;;;;;;;5068334;28;20059;-70
2022/06/16 06:49:10;;;;;;;0.30;0.30;;;;;;;;;;5068954;28;20071;-71
2022/06/16 06:51:36;;;;;;;0.30;0.30;;;;;;;;;;5072277;28;20047;-77
2022/06/16 06:54:02;;;;;;;0.65;0.65;;;;;;;;;;5050876;28;20063;-69
2022/06/16 06:56:28;;;;;;;0.30;0.30;;;;;;;;;;5050973;28;20040;-71
2022/06/16 06:58:56;;;;;;;0.40;0.40;;;;;;;;;;5069015;28;20377;-70
2022/06/16 07:01:21;;;;;;;0.28;0.28;;;;;;;;;;5051178;28;20036;-70
2022/06/16 07:03:49;;;;;;;0.20;0.20;;;;;;;;;;5068904;28;20066;-71
2022/06/16 07:06:16;;;;;;;0.50;0.50;;;;;;;;;;5064331;28;20463;-71
2022/06/16 07:08:41;;;;;;;0.30;0.30;;;;;;;;;;5089444;28;20067;-70
2022/06/16 07:11:07;;;;;;;0.80;0.80;;;;;;;;;;5089165;28;20071;-70
2022/06/16 07:13:33;;;;;;;0.30;0.30;;;;;;;;;;5070951;28;20016;-71
2022/06/16 07:15:59;;;;;;;0.40;0.40;;;;;;;;;;5070583;28;20067;-70
2022/06/16 07:18:24;;;;;;;0.30;0.30;;;;;;;;;;5089215;28;20475;-71
2022/06/16 07:20:51;;;;;;;0.30;0.30;;;;;;;;;;5089293;28;20055;-70
2022/06/16 07:23:18;;;;;;;0.60;0.60;;;;;;;;;;5089054;28;20387;-76
2022/06/16 07:25:45;;;;;;;0.35;0.35;;;;;;;;;;5054055;28;20479;-70
2022/06/16 07:28:13;;;;;;;0.50;0.50;;;;;;;;;;5053334;28;20514;-69
2022/06/16 07:30:41;;;;;;;0.45;0.45;;;;;;;;;;5070745;28;20046;-71
2022/06/16 07:33:07;;;;;;;0.30;0.30;;;;;;;;;;5088609;28;20422;-70
2022/06/16 07:35:32;;;;;;;0.40;0.40;;;;;;;;;;5088655;28;20581;-73
2022/06/16 07:37:58;;;;;;;0.32;0.32;;;;;;;;;;5070642;28;20095;-70
2022/06/16 07:40:24;;;;;;;0.40;0.40;;;;;;;;;;5088474;28;20447;-70
2022/06/16 07:42:54;;;;;;;0.22;0.22;;;;;;;;;;5088722;28;20101;-70
2022/06/16 07:45:20;;;;;;;0.60;0.60;;;;;;;;;;5053876;28;20035;-71
2022/06/16 07:47:46;;;;;;;0.52;0.52;;;;;;;;;;5088438;28;20024;-69
2022/06/16 07:50:12;;;;;;;1.67;1.58;;;;;;;;;;5088163;28;20032;-70
2022/06/16 07:52:37;;;;;;;1.17;1.08;;;;;;;;;;5053836;28;20475;-70
2022/06/16 07:55:04;;;;;;;1.15;1.00;;;;;;;;;;5088479;28;20463;-70
2022/06/16 07:57:32;;;;;;;0.40;0.40;;;;;;;;;;5053509;28;20859;-71
2022/06/16 07:59:58;;;;;;;0.30;0.30;;;;;;;;;;5053256;28;20040;-70
2022/06/16 08:02:24;;;;;;;0.98;0.98;;;;;;;;;;5070307;28;20191;-71
2022/06/16 08:04:50;;;;;;;2.92;1.10;;;;;;;;;;5053533;28;20028;-76
2022/06/16 08:07:16;;;;;;;1.75;0.93;;;;;;;;;;5088290;28;20483;-70
2022/06/16 08:09:42;;;;;;;0.60;0.60;;;;;;;;;;5053624;28;20059;-69
2022/06/16 08:12:08;;;;;;;0.40;0.40;;;;;;;;;;5087797;28;20450;-70
2022/06/16 08:14:36;;;;;;;2.40;1.42;;;;;;;;;;5053473;28;20028;-71
2022/06/16 08:17:03;;;;;;;0.98;0.90;;;;;;;;;;5053429;28;20032;-70
2022/06/16 08:19:28;;;;;;;1.90;1.45;;;;;;;;;;5053501;28;20028;-70
2022/06/16 08:21:54;;;;;;;0.50;0.50;;;;;;;;;;5087809;28;20032;-74
2022/06/16 08:24:19;;;;;;;0.30;0.30;;;;;;;;;;5086771;28;20429;-80
2022/06/16 08:26:45;;;;;;;0.30;0.30;;;;;;;;;;5087798;28;20114;-70
2022/06/16 08:29:12;;;;;;;0.40;0.40;;;;;;;;;;5068712;28;20028;-70
2022/06/16 08:31:38;;;;;;;0.40;0.40;;;;;;;;;;5085816;28;20364;-69
2022/06/16 08:34:04;;;;;;;2.05;1.35;;;;;;;;;;5059344;28;20032;-69
2022/06/16 08:36:30;;;;;;;1.65;0.85;;;;;;;;;;5087969;28;20502;-70
2022/06/16 08:38:55;;;;;;;0.57;0.57;;;;;;;;;;5087856;28;20032;-68
2022/06/16 08:41:30;;;;;;;0.40;0.40;;;;;;;;;;5087905;28;20028;-70
2022/06/16 08:44:09;;;;;;;0.50;0.50;;;;;;;;;;5069767;28;20032;-71
2022/06/16 08:46:51;;;;;;;2.67;1.52;;;;;;;;;;5086474;28;20036;-70
2022/06/16 08:49:25;;;;;;;0.50;0.50;;;;;;;;;;5069423;28;20070;-70
2022/06/16 08:52:10;;;;;;;1.60;1.45;;;;;;;;;;5087557;28;20093;-71
2022/06/16 08:54:44;;;;;;;0.63;0.63;;;;;;;;;;5087747;28;20040;-78
2022/06/16 08:57:14;;;;;;;0.40;0.40;;;;;;;;;;5031906;28;20045;-71
2022/06/16 08:59:39;;;;;;;1.05;0.98;;;;;;;;;;5030920;28;20029;-72
2022/06/16 09:02:07;;;;;;;0.55;0.55;;;;;;;;;;5065010;28;20048;-71
2022/06/16 09:04:44;;;;;;;3.35;1.92;;;;;;;;;;5030399;28;20032;-71
2022/06/16 09:07:23;;;;;;;0.88;0.68;;;;;;;;;;5047461;28;20068;-70
2022/06/16 09:12:50;;;;;;;0.50;0.50;;;;;;;;;;5068869;28;20097;-77
2022/06/16 09:15:20;;;;;;;2.65;1.70;;;;;;;;;;5069040;28;20032;-70
2022/06/16 09:17:46;;;;;;;3.22;2.13;;;;;;;;;;5068756;28;20044;-73
2022/06/16 09:20:15;;;;;;;1.27;0.98;;;;;;;;;;5068112;28;20036;-71
2022/06/16 09:22:59;;;;;;;2.40;1.45;;;;;;;;;;5050291;28;20466;-78
2022/06/16 09:25:43;;;;;;;0.73;0.73;;;;;;;;;;5068298;28;20028;-74
2022/06/16 09:28:12;;;;;;;0.80;0.75;;;;;;;;;;5085159;28;20067;-69
2022/06/16 09:30:39;;;;;;;1.55;1.17;;;;;;;;;;5088729;28;20565;-70
2022/06/16 09:33:16;;;;;;;2.75;1.73;;;;;;;;;;5088382;28;20028;-75
2022/06/16 09:35:48;;;;;;;1.55;1.00;;;;;;;;;;5053644;28;20036;-75
2022/06/16 09:38:38;;;;;;;3.15;1.02;;;;;;;;;;5070062;28;20051;-77
2022/06/16 09:41:06;;;;;;;1.30;0.73;;;;;;;;;;5076250;28;20487;-74
2022/06/16 09:43:41;;;;;;;0.43;0.40;;;;;;;;;;5088657;28;20028;-75
2022/06/16 09:46:14;;;;;;;3.00;0.95;;;;;;;;;;5087382;28;20032;-75
2022/06/16 09:48:45;;;;;;;2.05;1.13;;;;;;;;;;5088397;28;20131;-75
2022/06/16 09:51:14;;;;;;;1.52;1.20;;;;;;;;;;5088174;28;20564;-74
2022/06/16 09:53:45;;;;;;;2.15;1.30;;;;;;;;;;5088375;28;20035;-75
2022/06/16 09:56:13;;;;;;;0.43;0.43;;;;;;;;;;5087998;28;20036;-75
2022/06/16 09:58:39;;;;;;;3.83;1.02;;;;;;;;;;5087789;28;20039;-74
2022/06/16 10:01:08;;;;;;;2.10;1.10;;;;;;;;;;5069955;28;20758;-74
2022/06/16 10:03:49;;;;;;;7.70;1.60;;;;;;;;;;5069957;28;20036;-74
2022/06/16 10:06:15;;;;;;;1.85;1.40;;;;;;;;;;5086560;28;20036;-75
2022/06/16 10:08:45;;;;;;;1.45;0.70;;;;;;;;;;5093653;28;20039;-74
2022/06/16 10:11:19;;;;;;;0.73;0.65;;;;;;;;;;5092333;28;20092;-75
2022/06/16 10:13:57;;;;;;;8.40;1.60;;;;;;;;;;5087072;28;20038;-74
2022/06/16 10:16:29;;;;;;;2.28;1.95;;;;;;;;;;5088406;28;20407;-75
2022/06/16 10:18:55;;;;;;;1.08;1.02;;;;;;;;;;5089168;28;20032;-73
2022/06/16 10:21:21;;;;;;;1.73;1.27;;;;;;;;;;5087616;28;20488;-75
2022/06/16 10:23:59;;;;;;;0.75;0.75;;;;;;;;;;5087677;28;20047;-74
2022/06/16 10:26:24;;;;;;;2.00;1.20;;;;;;;;;;5052873;28;20484;-76
2022/06/16 10:28:50;;;;;;;1.27;0.85;;;;;;;;;;5087819;28;20028;-75
2022/06/16 10:31:34;;;;;;;0.40;0.40;;;;;;;;;;5087504;28;20468;-75
2022/06/16 10:34:01;;;;;;;2.45;1.35;;;;;;;;;;5052041;28;20115;-75
2022/06/16 10:36:27;;;;;;;2.08;1.17;;;;;;;;;;5087399;28;20185;-73
2022/06/16 10:39:04;;;;;;;1.92;1.33;;;;;;;;;;5087341;28;20115;-75
2022/06/16 10:41:32;;;;;;;3.28;1.67;;;;;;;;;;5069781;28;20093;-75
2022/06/16 10:43:59;;;;;;;4.68;0.70;;;;;;;;;;5087259;28;20031;-75
2022/06/16 10:46:29;;;;;;;3.45;1.30;;;;;;;;;;5086952;28;20055;-78
2022/06/16 10:48:56;;;;;;;2.75;1.10;;;;;;;;;;5071131;28;20034;-76
2022/06/16 10:51:23;;;;;;;3.92;2.67;;;;;;;;;;5066808;28;20021;-76
2022/06/16 10:54:09;;;;;;;6.22;3.75;;;;;;;;;;5067238;28;20108;-75
2022/06/16 10:56:34;;;;;;;7.22;3.00;;;;;;;;;;5053228;28;20045;-73
2022/06/16 10:59:04;;;;;;;4.13;2.17;;;;;;;;;;5066870;28;20362;-74
2022/06/16 11:01:29;;;;;;;6.30;2.33;;;;;;;;;;5066855;28;20048;-74
2022/06/16 11:04:06;;;;;;;9.90;4.90;;;;;;;;;;5066894;28;20028;-78
2022/06/16 11:06:32;;;;;;;1.05;1.00;;;;;;;;;;5066784;28;20024;-75
2022/06/16 11:09:00;;;;;;;3.05;2.15;;;;;;;;;;5066657;28;20024;-75
2022/06/16 11:11:39;;;;;;;4.60;2.35;;;;;;;;;;5048931;28;20040;-74
2022/06/16 11:14:07;;;;;;;4.18;1.98;;;;;;;;;;5048171;28;20604;-74
2022/06/16 11:16:37;;;;;;;4.35;2.08;;;;;;;;;;5067018;28;20032;-73
2022/06/16 11:19:07;;;;;;;2.53;1.50;;;;;;;;;;5048723;28;20484;-74
2022/06/16 11:21:33;;;;;;;1.70;1.20;;;;;;;;;;5048326;28;20044;-77
2022/06/16 11:24:00;;;;;;;3.40;1.63;;;;;;;;;;5066883;28;20024;-75
2022/06/16 11:26:28;;;;;;;2.20;1.35;;;;;;;;;;5066726;28;20036;-74
2022/06/16 11:29:02;;;;;;;4.20;2.10;;;;;;;;;;5048585;28;20036;-75
2022/06/16 11:31:37;;;;;;;1.65;1.20;;;;;;;;;;5066461;28;20040;-75
2022/06/16 11:34:08;;;;;;;3.72;1.90;;;;;;;;;;5047664;28;20028;-74
2022/06/16 11:36:43;;;;;;;2.63;1.38;;;;;;;;;;5066841;28;20463;-75
2022/06/16 11:39:23;;;;;;;1.95;1.42;;;;;;;;;;5066704;28;20033;-75
2022/06/16 11:41:50;;;;;;;1.50;1.15;;;;;;;;;;5066363;28;20040;-74
2022/06/16 11:44:18;;;;;;;4.30;2.25;;;;;;;;;;5066124;28;20037;-74
2022/06/16 11:46:44;;;;;;;4.72;1.70;;;;;;;;;;5066162;28;20037;-77
2022/06/16 11:49:35;;;;;;;3.92;1.80;;;;;;;;;;5066234;28;20411;-74
2022/06/16 11:52:01;;;;;;;2.30;1.38;;;;;;;;;;5061844;28;20036;-74
2022/06/16 11:54:46;;;;;;;1.45;0.82;;;;;;;;;;5048395;28;20040;-74
2022/06/16 11:57:12;;;;;;;0.98;0.65;;;;;;;;;;5064961;28;20044;-73
2022/06/16 11:59:40;;;;;;;2.22;1.35;;;;;;;;;;5066504;28;20357;-74
2022/06/16 12:02:17;;;;;;;0.20;0.20;;;;;;;;;;5066173;28;20032;-75
2022/06/16 12:04:46;;;;;;;4.45;1.35;;;;;;;;;;5066158;28;20040;-75
2022/06/16 12:07:23;;;;;;;0.88;0.75;;;;;;;;;;5066035;28;20039;-76
2022/06/16 12:10:08;;;;;;;1.23;0.98;;;;;;;;;;5065587;28;20391;-74
2022/06/16 12:12:54;;;;;;;3.05;1.60;;;;;;;;;;5065746;28;20047;-75
2022/06/16 12:15:29;;;;;;;3.75;1.20;;;;;;;;;;5066097;28;20607;-76
2022/06/16 12:18:07;;;;;;;3.78;1.02;;;;;;;;;;5048314;28;20376;-73
2022/06/16 12:20:38;;;;;;;2.15;1.10;;;;;;;;;;5048049;28;20055;-74
2022/06/16 12:23:03;;;;;;;1.23;0.90;;;;;;;;;;5047378;28;20044;-75
2022/06/16 12:25:35;;;;;;;0.90;0.70;;;;;;;;;;5065932;28;20037;-76
2022/06/16 12:28:03;;;;;;;2.90;1.95;;;;;;;;;;5065562;28;20107;-75
2022/06/16 12:30:38;;;;;;;2.40;1.00;;;;;;;;;;5049203;28;20579;-76
2022/06/16 12:33:23;;;;;;;2.17;1.23;;;;;;;;;;5085709;28;20028;-74
2022/06/16 12:35:53;;;;;;;3.65;0.95;;;;;;;;;;5085890;28;20165;-75
2022/06/16 12:38:27;;;;;;;2.70;1.30;;;;;;;;;;5034434;28;20487;-74
2022/06/16 12:40:58;;;;;;;2.25;0.98;;;;;;;;;;5085866;28;20036;-74
2022/06/16 12:43:24;;;;;;;2.05;1.00;;;;;;;;;;5085823;28;20035;-75
2022/06/16 12:46:01;;;;;;;1.35;0.73;;;;;;;;;;5088083;28;20036;-75
2022/06/16 12:48:31;;;;;;;1.90;1.15;;;;;;;;;;5070980;28;20241;-77
2022/06/16 12:50:58;;;;;;;0.85;0.68;;;;;;;;;;5089171;28;20055;-75
2022/06/16 12:53:35;;;;;;;3.53;1.23;;;;;;;;;;5089526;28;20032;-76
2022/06/16 12:56:07;;;;;;;0.30;0.30;;;;;;;;;;5089824;28;20036;-74
2022/06/16 12:58:43;;;;;;;4.70;1.13;;;;;;;;;;5090732;28;20062;-76
2022/06/16 13:01:11;;;;;;;1.35;0.98;;;;;;;;;;5091766;28;20514;-75
2022/06/16 13:03:37;;;;;;;1.02;0.93;;;;;;;;;;5091598;28;20032;-74
2022/06/16 13:06:03;;;;;;;2.47;1.00;;;;;;;;;;5091168;28;20040;-74
2022/06/16 13:08:30;;;;;;;1.30;0.85;;;;;;;;;;5091379;28;20365;-74
2022/06/16 13:10:58;;;;;;;3.83;0.93;;;;;;;;;;5090908;28;20032;-75
2022/06/16 13:13:27;;;;;;;2.20;1.30;;;;;;;;;;5091304;28;20378;-75
2022/06/16 13:15:54;;;;;;;2.97;1.27;;;;;;;;;;5091288;28;20613;-74
2022/06/16 13:18:22;;;;;;;3.42;1.17;;;;;;;;;;5091325;28;20032;-73
2022/06/16 13:20:50;;;;;;;2.83;1.38;;;;;;;;;;5091402;28;20055;-72
2022/06/16 13:23:28;;;;;;;2.60;0.57;;;;;;;;;;5091277;28;20059;-75
2022/06/16 13:25:55;;;;;;;1.25;0.88;;;;;;;;;;5090964;28;20424;-73
2022/06/16 13:28:23;;;;;;;1.48;0.70;;;;;;;;;;5091231;28;20059;-73
2022/06/16 13:30:58;;;;;;;1.43;1.33;;;;;;;;;;5090970;28;20073;-73
2022/06/16 13:33:31;;;;;;;2.33;0.85;;;;;;;;;;5072924;28;20476;-73
2022/06/16 13:36:12;;;;;;;4.03;1.60;;;;;;;;;;5091329;28;20039;-75
2022/06/16 13:38:41;;;;;;;13.70;0.75;;;;;;;;;;5072429;28;20040;-73
2022/06/16 13:41:25;;;;;;;1.25;0.60;;;;;;;;;;5091010;28;20355;-73
2022/06/16 13:44:09;;;;;;;1.15;0.70;;;;;;;;;;5073395;28;20118;-73
2022/06/16 13:46:55;;;;;;;5.60;0.95;;;;;;;;;;5090666;28;20029;-73
2022/06/16 13:49:43;;;;;;;1.20;0.80;;;;;;;;;;5055686;28;20066;-74
2022/06/16 13:52:12;;;;;;;2.28;0.80;;;;;;;;;;5088225;28;20044;-74
2022/06/16 13:54:38;;;;;;;1.38;0.43;;;;;;;;;;5090513;28;20063;-73
2022/06/16 13:57:21;;;;;;;1.90;0.93;;;;;;;;;;5090634;28;20128;-79
2022/06/16 13:59:53;;;;;;;5.75;1.67;;;;;;;;;;5090514;28;20032;-74
2022/06/16 14:02:20;;;;;;;5.97;0.80;;;;;;;;;;5072531;28;20073;-73
2022/06/16 14:05:00;;;;;;;0.50;0.50;;;;;;;;;;5090572;28;20473;-73
2022/06/16 14:07:46;;;;;;;1.15;0.93;;;;;;;;;;5056155;28;20662;-74
2022/06/16 14:10:22;;;;;;;3.70;2.92;;;;;;;;;;5054950;28;20066;-74
2022/06/16 14:12:53;;;;;;;6.32;2.80;;;;;;;;;;5072370;28;20426;-73
2022/06/16 14:15:38;;;;;;;0.70;0.70;;;;;;;;;;5089577;28;20040;-75
2022/06/16 14:18:25;;;;;;;1.17;1.00;;;;;;;;;;5089787;28;20104;-74
2022/06/16 14:20:51;;;;;;;2.15;1.00;;;;;;;;;;5090479;28;20032;-74
2022/06/16 14:23:23;;;;;;;0.43;0.43;;;;;;;;;;5090413;28;20051;-73
2022/06/16 14:25:52;;;;;;;0.60;0.60;;;;;;;;;;5073780;28;20500;-74
2022/06/16 14:28:22;;;;;;;0.50;0.50;;;;;;;;;;5085436;28;20031;-73
2022/06/16 14:30:54;;;;;;;0.63;0.50;;;;;;;;;;5101252;28;20124;-74
2022/06/16 14:33:29;;;;;;;0.73;0.70;;;;;;;;;;5101367;28;20034;-73
2022/06/16 14:36:09;;;;;;;0.77;0.77;;;;;;;;;;5096976;28;20161;-74
2022/06/16 14:38:57;;;;;;;1.63;0.73;;;;;;;;;;5090215;28;20028;-74
2022/06/16 14:41:22;;;;;;;2.60;0.90;;;;;;;;;;5090671;28;20048;-73
2022/06/16 14:44:14;;;;;;;0.93;0.85;;;;;;;;;;5090098;28;20036;-73
2022/06/16 14:46:42;;;;;;;1.50;1.00;;;;;;;;;;5083077;28;20063;-74
2022/06/16 14:49:08;;;;;;;0.80;0.80;;;;;;;;;;5089700;28;20388;-76
2022/06/16 14:51:36;;;;;;;0.60;0.60;;;;;;;;;;5089498;28;20039;-75
2022/06/16 14:54:02;;;;;;;1.13;1.02;;;;;;;;;;5089717;28;20058;-76
2022/06/16 14:56:27;;;;;;;0.77;0.75;;;;;;;;;;5089850;28;20028;-74
2022/06/16 14:58:55;;;;;;;1.17;1.08;;;;;;;;;;5071308;28;20054;-75
2022/06/16 15:01:22;;;;;;;0.68;0.68;;;;;;;;;;5089871;28;20082;-74
2022/06/16 15:03:49;;;;;;;3.50;1.33;;;;;;;;;;5089840;28;20043;-74
2022/06/16 15:06:15;;;;;;;0.55;0.50;;;;;;;;;;5089671;28;20383;-74
2022/06/16 15:08:46;;;;;;;2.97;0.50;;;;;;;;;;5088934;28;20039;-74
2022/06/16 15:11:13;;;;;;;0.30;0.30;;;;;;;;;;5089747;28;20036;-73
2022/06/16 15:13:43;;;;;;;1.48;0.80;;;;;;;;;;5089423;28;20046;-74
2022/06/16 15:18:55;;;;;;;0.40;0.40;;;;;;;;;;5071215;28;20035;-74
2022/06/16 15:21:22;;;;;;;0.90;0.63;;;;;;;;;;5089686;28;20035;-73
2022/06/16 15:23:51;;;;;;;0.47;0.45;;;;;;;;;;5089310;28;20085;-74
2022/06/16 15:26:20;;;;;;;2.28;0.70;;;;;;;;;;5088874;28;20060;-74
2022/06/16 15:28:53;;;;;;;0.63;0.63;;;;;;;;;;5089280;28;20039;-75
2022/06/16 15:31:24;;;;;;;0.95;0.63;;;;;;;;;;5088831;28;20039;-77